sensor_id;sensor_type;location;lat;lon;timestamp;temperature;humidity
9998;DHT22;5038;53.064;8.624;2022-10-18T00:01:05;15.30;99.90
9998;DHT22;5038;53.064;8.624;2022-10-18T00:03:34;15.30;99.90
9998;DHT22;5038;53.064;8.624;2022-10-18T00:06:05;15.30;99.90
9998;DHT22;5038;53.064;8.624;2022-10-18T00:08:35;15.30;99.90
9998;DHT22;5038;53.064;8.624;2022-10-18T00:11:03;15.20;99.90
9998;DHT22;5038;53.064;8.624;2022-10-18T00:13:31;15.20;99.90
9998;DHT22;5038;53.064;8.624;2022-10-18T00:16:03;15.20;99.90
9998;DHT22;5038;53.064;8.624;2022-10-18T00:18:31;15.20;99.90
9998;DHT22;5038;53.064;8.624;2022-10-18T00:21:01;15.20;99.90
9998;DHT22;5038;53.064;8.624;2022-10-18T00:23:32;15.20;99.90
9998;DHT22;5038;53.064;8.624;2022-10-18T00:26:02;15.20;99.90
9998;DHT22;5038;53.064;8.624;2022-10-18T00:28:31;15.10;99.90
9998;DHT22;5038;53.064;8.624;2022-10-18T00:31:09;15.10;99.90
9998;DHT22;5038;53.064;8.624;2022-10-18T00:33:38;15.10;99.90
9998;DHT22;5038;53.064;8.624;2022-10-18T00:36:07;15.00;99.90
9998;DHT22;5038;53.064;8.624;2022-10-18T00:38:37;15.10;99.90
9998;DHT22;5038;53.064;8.624;2022-10-18T00:41:07;15.00;99.90
9998;DHT22;5038;53.064;8.624;2022-10-18T00:43:54;15.00;99.90
9998;DHT22;5038;53.064;8.624;2022-10-18T00:46:24;15.00;99.90
9998;DHT22;5038;53.064;8.624;2022-10-18T00:48:55;15.00;99.90
9998;DHT22;5038;53.064;8.624;2022-10-18T00:51:26;14.90;99.90
9998;DHT22;5038;53.064;8.624;2022-10-18T00:53:56;14.90;99.90
9998;DHT22;5038;53.064;8.624;2022-10-18T00:56:25;14.90;99.90
9998;DHT22;5038;53.064;8.624;2022-10-18T00:58:53;14.90;99.90
9998;DHT22;5038;53.064;8.624;2022-10-18T01:01:21;14.90;99.90
9998;DHT22;5038;53.064;8.624;2022-10-18T01:03:55;14.80;99.90
9998;DHT22;5038;53.064;8.624;2022-10-18T01:06:24;14.80;99.90
9998;DHT22;5038;53.064;8.624;2022-10-18T01:09:13;14.80;99.90
9998;DHT22;5038;53.064;8.624;2022-10-18T01:11:54;14.80;99.90
9998;DHT22;5038;53.064;8.624;2022-10-18T01:14:34;14.70;99.90
9998;DHT22;5038;53.064;8.624;2022-10-18T01:17:09;14.70;99.90
9998;DHT22;5038;53.064;8.624;2022-10-18T01:20:00;14.70;99.90
9998;DHT22;5038;53.064;8.624;2022-10-18T01:22:33;14.60;99.90
9998;DHT22;5038;53.064;8.624;2022-10-18T01:25:19;14.60;99.90
9998;DHT22;5038;53.064;8.624;2022-10-18T01:27:56;14.60;99.90
9998;DHT22;5038;53.064;8.624;2022-10-18T01:30:39;14.50;99.90
9998;DHT22;5038;53.064;8.624;2022-10-18T01:33:23;14.50;99.90
9998;DHT22;5038;53.064;8.624;2022-10-18T01:35:57;14.50;99.90
9998;DHT22;5038;53.064;8.624;2022-10-18T01:38:29;14.50;99.90
9998;DHT22;5038;53.064;8.624;2022-10-18T01:40:59;14.40;99.90
9998;DHT22;5038;53.064;8.624;2022-10-18T01:43:29;14.40;99.90
9998;DHT22;5038;53.064;8.624;2022-10-18T01:45:59;14.40;99.90
9998;DHT22;5038;53.064;8.624;2022-10-18T01:48:28;14.40;99.90
9998;DHT22;5038;53.064;8.624;2022-10-18T01:50:56;14.40;99.90
9998;DHT22;5038;53.064;8.624;2022-10-18T01:53:28;14.30;99.90
9998;DHT22;5038;53.064;8.624;2022-10-18T01:56:17;14.30;99.90
9998;DHT22;5038;53.064;8.624;2022-10-18T01:59:02;14.30;99.90
9998;DHT22;5038;53.064;8.624;2022-10-18T02:01:40;14.30;99.90
9998;DHT22;5038;53.064;8.624;2022-10-18T02:04:19;14.30;99.90
9998;DHT22;5038;53.064;8.624;2022-10-18T02:06:53;14.30;99.90
9998;DHT22;5038;53.064;8.624;2022-10-18T02:09:30;14.20;99.90
9998;DHT22;5038;53.064;8.624;2022-10-18T02:12:02;14.20;99.90
9998;DHT22;5038;53.064;8.624;2022-10-18T02:14:31;14.20;99.90
9998;DHT22;5038;53.064;8.624;2022-10-18T02:17:04;14.20;99.90
9998;DHT22;5038;53.064;8.624;2022-10-18T02:19:36;14.20;99.90
9998;DHT22;5038;53.064;8.624;2022-10-18T02:22:06;14.10;99.90
9998;DHT22;5038;53.064;8.624;2022-10-18T02:24:37;14.20;99.90
9998;DHT22;5038;53.064;8.624;2022-10-18T02:27:05;14.20;99.90
9998;DHT22;5038;53.064;8.624;2022-10-18T02:29:34;14.20;99.90
9998;DHT22;5038;53.064;8.624;2022-10-18T02:32:10;14.20;99.90
9998;DHT22;5038;53.064;8.624;2022-10-18T02:34:41;14.20;99.90
9998;DHT22;5038;53.064;8.624;2022-10-18T02:37:11;14.20;99.90
9998;DHT22;5038;53.064;8.624;2022-10-18T02:39:43;14.20;99.90
9998;DHT22;5038;53.064;8.624;2022-10-18T02:42:14;14.20;99.90
9998;DHT22;5038;53.064;8.624;2022-10-18T02:44:42;14.30;99.90
9998;DHT22;5038;53.064;8.624;2022-10-18T02:47:12;14.30;99.90
9998;DHT22;5038;53.064;8.624;2022-10-18T02:49:40;14.30;99.90
9998;DHT22;5038;53.064;8.624;2022-10-18T02:52:08;14.30;99.90
9998;DHT22;5038;53.064;8.624;2022-10-18T02:54:36;14.30;99.90
9998;DHT22;5038;53.064;8.624;2022-10-18T02:57:04;14.30;99.90
9998;DHT22;5038;53.064;8.624;2022-10-18T02:59:32;14.30;99.90
9998;DHT22;5038;53.064;8.624;2022-10-18T03:02:00;14.30;99.90
9998;DHT22;5038;53.064;8.624;2022-10-18T03:04:30;14.40;99.90
9998;DHT22;5038;53.064;8.624;2022-10-18T03:06:58;14.40;99.90
9998;DHT22;5038;53.064;8.624;2022-10-18T03:09:26;14.40;99.90
9998;DHT22;5038;53.064;8.624;2022-10-18T03:11:54;14.40;99.90
9998;DHT22;5038;53.064;8.624;2022-10-18T03:14:22;14.40;99.90
9998;DHT22;5038;53.064;8.624;2022-10-18T03:16:50;14.40;99.90
9998;DHT22;5038;53.064;8.624;2022-10-18T03:19:18;14.40;99.90
9998;DHT22;5038;53.064;8.624;2022-10-18T03:21:48;14.40;99.90
9998;DHT22;5038;53.064;8.624;2022-10-18T03:24:16;14.40;99.90
9998;DHT22;5038;53.064;8.624;2022-10-18T03:26:44;14.40;99.90
9998;DHT22;5038;53.064;8.624;2022-10-18T03:29:13;14.50;99.90
9998;DHT22;5038;53.064;8.624;2022-10-18T03:31:41;14.50;99.90
9998;DHT22;5038;53.064;8.624;2022-10-18T03:34:09;14.50;99.90
9998;DHT22;5038;53.064;8.624;2022-10-18T03:36:37;14.50;99.90
9998;DHT22;5038;53.064;8.624;2022-10-18T03:39:09;14.50;99.90
9998;DHT22;5038;53.064;8.624;2022-10-18T03:41:38;14.50;99.90
9998;DHT22;5038;53.064;8.624;2022-10-18T03:44:06;14.50;99.90
9998;DHT22;5038;53.064;8.624;2022-10-18T03:46:34;14.50;99.90
9998;DHT22;5038;53.064;8.624;2022-10-18T03:49:02;14.50;99.90
9998;DHT22;5038;53.064;8.624;2022-10-18T03:51:31;14.50;99.90
9998;DHT22;5038;53.064;8.624;2022-10-18T03:53:59;14.50;99.90
9998;DHT22;5038;53.064;8.624;2022-10-18T03:56:29;14.50;99.90
9998;DHT22;5038;53.064;8.624;2022-10-18T03:58:57;14.50;99.90
9998;DHT22;5038;53.064;8.624;2022-10-18T04:01:25;14.50;99.90
9998;DHT22;5038;53.064;8.624;2022-10-18T04:03:53;14.60;99.90
9998;DHT22;5038;53.064;8.624;2022-10-18T04:06:22;14.50;99.90
9998;DHT22;5038;53.064;8.624;2022-10-18T04:08:50;14.60;99.90
9998;DHT22;5038;53.064;8.624;2022-10-18T04:11:18;14.60;99.90
9998;DHT22;5038;53.064;8.624;2022-10-18T04:13:48;14.60;99.90
9998;DHT22;5038;53.064;8.624;2022-10-18T04:16:16;14.60;99.90
9998;DHT22;5038;53.064;8.624;2022-10-18T04:18:44;14.60;99.90
9998;DHT22;5038;53.064;8.624;2022-10-18T04:21:12;14.60;99.90
9998;DHT22;5038;53.064;8.624;2022-10-18T04:23:40;14.60;99.90
9998;DHT22;5038;53.064;8.624;2022-10-18T04:26:08;14.60;99.90
9998;DHT22;5038;53.064;8.624;2022-10-18T04:28:37;14.60;99.90
9998;DHT22;5038;53.064;8.624;2022-10-18T04:31:08;14.60;99.90
9998;DHT22;5038;53.064;8.624;2022-10-18T04:33:36;14.60;99.90
9998;DHT22;5038;53.064;8.624;2022-10-18T04:36:05;14.60;99.90
9998;DHT22;5038;53.064;8.624;2022-10-18T04:38:33;14.60;99.90
9998;DHT22;5038;53.064;8.624;2022-10-18T04:41:01;14.60;99.90
9998;DHT22;5038;53.064;8.624;2022-10-18T04:43:29;14.60;99.90
9998;DHT22;5038;53.064;8.624;2022-10-18T04:45:58;14.50;99.90
9998;DHT22;5038;53.064;8.624;2022-10-18T04:48:27;14.50;99.90
9998;DHT22;5038;53.064;8.624;2022-10-18T04:50:55;14.50;99.90
9998;DHT22;5038;53.064;8.624;2022-10-18T04:53:24;14.50;99.90
9998;DHT22;5038;53.064;8.624;2022-10-18T04:55:52;14.50;99.90
9998;DHT22;5038;53.064;8.624;2022-10-18T04:58:20;14.50;99.90
9998;DHT22;5038;53.064;8.624;2022-10-18T05:00:48;14.50;99.90
9998;DHT22;5038;53.064;8.624;2022-10-18T05:03:17;14.50;99.90
9998;DHT22;5038;53.064;8.624;2022-10-18T05:05:47;14.50;99.90
9998;DHT22;5038;53.064;8.624;2022-10-18T05:08:28;14.50;99.90
9998;DHT22;5038;53.064;8.624;2022-10-18T05:10:56;14.50;99.90
9998;DHT22;5038;53.064;8.624;2022-10-18T05:13:25;14.50;99.90
9998;DHT22;5038;53.064;8.624;2022-10-18T05:15:53;14.50;99.90
9998;DHT22;5038;53.064;8.624;2022-10-18T05:18:22;14.50;99.90
9998;DHT22;5038;53.064;8.624;2022-10-18T05:20:51;14.50;99.90
9998;DHT22;5038;53.064;8.624;2022-10-18T05:23:20;14.50;99.90
9998;DHT22;5038;53.064;8.624;2022-10-18T05:25:49;14.50;99.90
9998;DHT22;5038;53.064;8.624;2022-10-18T05:28:17;14.50;99.90
9998;DHT22;5038;53.064;8.624;2022-10-18T05:31:07;14.50;99.90
9998;DHT22;5038;53.064;8.624;2022-10-18T05:33:36;14.40;99.90
9998;DHT22;5038;53.064;8.624;2022-10-18T05:36:06;14.40;99.90
9998;DHT22;5038;53.064;8.624;2022-10-18T05:38:37;14.40;99.90
9998;DHT22;5038;53.064;8.624;2022-10-18T05:41:08;14.40;99.90
9998;DHT22;5038;53.064;8.624;2022-10-18T05:43:37;14.40;99.90
9998;DHT22;5038;53.064;8.624;2022-10-18T05:46:05;14.40;99.90
9998;DHT22;5038;53.064;8.624;2022-10-18T05:48:41;14.40;99.90
9998;DHT22;5038;53.064;8.624;2022-10-18T05:51:11;14.30;99.90
9998;DHT22;5038;53.064;8.624;2022-10-18T05:53:39;14.40;99.90
9998;DHT22;5038;53.064;8.624;2022-10-18T05:56:08;14.40;99.90
9998;DHT22;5038;53.064;8.624;2022-10-18T05:58:38;14.40;99.90
9998;DHT22;5038;53.064;8.624;2022-10-18T06:01:07;14.40;99.90
9998;DHT22;5038;53.064;8.624;2022-10-18T06:03:36;14.30;99.90
9998;DHT22;5038;53.064;8.624;2022-10-18T06:06:06;14.30;99.90
9998;DHT22;5038;53.064;8.624;2022-10-18T06:08:37;14.30;99.90
9998;DHT22;5038;53.064;8.624;2022-10-18T06:11:07;14.30;99.90
9998;DHT22;5038;53.064;8.624;2022-10-18T06:13:39;14.30;99.90
9998;DHT22;5038;53.064;8.624;2022-10-18T06:16:08;14.30;99.90
9998;DHT22;5038;53.064;8.624;2022-10-18T06:18:37;14.30;99.90
9998;DHT22;5038;53.064;8.624;2022-10-18T06:21:05;14.30;99.90
9998;DHT22;5038;53.064;8.624;2022-10-18T06:23:36;14.30;99.90
9998;DHT22;5038;53.064;8.624;2022-10-18T06:26:05;14.30;99.90
9998;DHT22;5038;53.064;8.624;2022-10-18T06:28:35;14.30;99.90
9998;DHT22;5038;53.064;8.624;2022-10-18T06:31:04;14.30;99.90
9998;DHT22;5038;53.064;8.624;2022-10-18T06:33:33;14.30;99.90
9998;DHT22;5038;53.064;8.624;2022-10-18T06:36:05;14.30;99.90
9998;DHT22;5038;53.064;8.624;2022-10-18T06:38:33;14.30;99.90
9998;DHT22;5038;53.064;8.624;2022-10-18T06:41:04;14.30;99.90
9998;DHT22;5038;53.064;8.624;2022-10-18T06:43:33;14.30;99.90
9998;DHT22;5038;53.064;8.624;2022-10-18T06:46:02;14.30;99.90
9998;DHT22;5038;53.064;8.624;2022-10-18T06:48:33;14.30;99.90
9998;DHT22;5038;53.064;8.624;2022-10-18T06:51:03;14.30;99.90
9998;DHT22;5038;53.064;8.624;2022-10-18T06:53:34;14.30;99.90
9998;DHT22;5038;53.064;8.624;2022-10-18T06:56:15;14.30;99.90
9998;DHT22;5038;53.064;8.624;2022-10-18T06:58:44;14.30;99.90
9998;DHT22;5038;53.064;8.624;2022-10-18T07:01:14;14.30;99.90
9998;DHT22;5038;53.064;8.624;2022-10-18T07:03:44;14.30;99.90
9998;DHT22;5038;53.064;8.624;2022-10-18T07:06:15;14.30;99.90
9998;DHT22;5038;53.064;8.624;2022-10-18T07:08:44;14.30;99.90
9998;DHT22;5038;53.064;8.624;2022-10-18T07:11:15;14.30;99.90
9998;DHT22;5038;53.064;8.624;2022-10-18T07:13:44;14.30;99.90
9998;DHT22;5038;53.064;8.624;2022-10-18T07:16:14;14.30;99.90
9998;DHT22;5038;53.064;8.624;2022-10-18T07:18:46;14.30;99.90
9998;DHT22;5038;53.064;8.624;2022-10-18T07:21:17;14.30;99.90
9998;DHT22;5038;53.064;8.624;2022-10-18T07:23:45;14.30;99.90
9998;DHT22;5038;53.064;8.624;2022-10-18T07:26:18;14.30;99.90
9998;DHT22;5038;53.064;8.624;2022-10-18T07:28:48;14.30;99.90
9998;DHT22;5038;53.064;8.624;2022-10-18T07:31:17;14.30;99.90
9998;DHT22;5038;53.064;8.624;2022-10-18T07:33:45;14.30;99.90
9998;DHT22;5038;53.064;8.624;2022-10-18T07:36:13;14.30;99.90
9998;DHT22;5038;53.064;8.624;2022-10-18T07:38:42;14.30;99.90
9998;DHT22;5038;53.064;8.624;2022-10-18T07:41:11;14.20;99.90
9998;DHT22;5038;53.064;8.624;2022-10-18T07:43:45;14.30;99.90
9998;DHT22;5038;53.064;8.624;2022-10-18T07:46:16;14.30;99.90
9998;DHT22;5038;53.064;8.624;2022-10-18T07:48:45;14.30;99.90
9998;DHT22;5038;53.064;8.624;2022-10-18T07:51:13;14.30;99.90
9998;DHT22;5038;53.064;8.624;2022-10-18T07:53:42;14.20;99.90
9998;DHT22;5038;53.064;8.624;2022-10-18T07:56:13;14.30;99.90
9998;DHT22;5038;53.064;8.624;2022-10-18T07:58:45;14.30;99.90
9998;DHT22;5038;53.064;8.624;2022-10-18T08:01:14;14.20;99.90
9998;DHT22;5038;53.064;8.624;2022-10-18T08:03:42;14.20;99.90
9998;DHT22;5038;53.064;8.624;2022-10-18T08:06:14;14.20;99.90
9998;DHT22;5038;53.064;8.624;2022-10-18T08:08:43;14.30;99.90
9998;DHT22;5038;53.064;8.624;2022-10-18T08:11:13;14.20;99.90
9998;DHT22;5038;53.064;8.624;2022-10-18T08:13:43;14.20;99.90
9998;DHT22;5038;53.064;8.624;2022-10-18T08:16:14;14.30;99.90
9998;DHT22;5038;53.064;8.624;2022-10-18T08:18:43;14.30;99.90
9998;DHT22;5038;53.064;8.624;2022-10-18T08:21:13;14.40;99.90
9998;DHT22;5038;53.064;8.624;2022-10-18T08:23:42;14.40;99.90
9998;DHT22;5038;53.064;8.624;2022-10-18T08:26:12;14.40;99.90
9998;DHT22;5038;53.064;8.624;2022-10-18T08:28:41;14.40;99.90
9998;DHT22;5038;53.064;8.624;2022-10-18T08:31:25;14.40;99.90
9998;DHT22;5038;53.064;8.624;2022-10-18T08:33:54;14.50;99.90
9998;DHT22;5038;53.064;8.624;2022-10-18T08:36:24;14.50;99.90
9998;DHT22;5038;53.064;8.624;2022-10-18T08:38:52;14.60;99.90
9998;DHT22;5038;53.064;8.624;2022-10-18T08:41:51;14.60;99.90
9998;DHT22;5038;53.064;8.624;2022-10-18T08:44:26;14.70;99.90
9998;DHT22;5038;53.064;8.624;2022-10-18T08:46:59;14.70;99.90
9998;DHT22;5038;53.064;8.624;2022-10-18T08:49:31;14.70;99.90
9998;DHT22;5038;53.064;8.624;2022-10-18T08:52:09;14.80;99.90
9998;DHT22;5038;53.064;8.624;2022-10-18T08:54:51;14.90;99.90
9998;DHT22;5038;53.064;8.624;2022-10-18T08:57:24;14.90;99.90
9998;DHT22;5038;53.064;8.624;2022-10-18T08:59:52;14.90;99.90
9998;DHT22;5038;53.064;8.624;2022-10-18T09:02:34;14.90;99.90
9998;DHT22;5038;53.064;8.624;2022-10-18T09:05:17;15.00;99.90
9998;DHT22;5038;53.064;8.624;2022-10-18T09:07:59;15.00;99.90
9998;DHT22;5038;53.064;8.624;2022-10-18T09:10:42;15.00;99.90
9998;DHT22;5038;53.064;8.624;2022-10-18T09:13:31;15.10;99.90
9998;DHT22;5038;53.064;8.624;2022-10-18T09:16:05;15.10;99.90
9998;DHT22;5038;53.064;8.624;2022-10-18T09:18:47;15.20;99.90
9998;DHT22;5038;53.064;8.624;2022-10-18T09:21:20;15.30;99.90
9998;DHT22;5038;53.064;8.624;2022-10-18T09:24:00;15.30;99.90
9998;DHT22;5038;53.064;8.624;2022-10-18T09:26:35;15.40;99.90
9998;DHT22;5038;53.064;8.624;2022-10-18T09:29:18;15.30;99.90
9998;DHT22;5038;53.064;8.624;2022-10-18T09:31:55;15.30;99.90
9998;DHT22;5038;53.064;8.624;2022-10-18T09:34:30;15.30;99.90
9998;DHT22;5038;53.064;8.624;2022-10-18T09:37:04;15.30;99.90
9998;DHT22;5038;53.064;8.624;2022-10-18T09:39:39;15.30;99.90
9998;DHT22;5038;53.064;8.624;2022-10-18T09:42:13;15.40;99.90
9998;DHT22;5038;53.064;8.624;2022-10-18T09:44:47;15.40;99.90
9998;DHT22;5038;53.064;8.624;2022-10-18T09:47:19;15.40;99.90
9998;DHT22;5038;53.064;8.624;2022-10-18T09:49:53;15.40;99.90
9998;DHT22;5038;53.064;8.624;2022-10-18T09:52:26;15.40;99.90
9998;DHT22;5038;53.064;8.624;2022-10-18T09:54:58;15.50;99.90
9998;DHT22;5038;53.064;8.624;2022-10-18T09:57:32;15.50;99.90
9998;DHT22;5038;53.064;8.624;2022-10-18T10:00:04;15.50;99.90
9998;DHT22;5038;53.064;8.624;2022-10-18T10:02:34;15.60;99.90
9998;DHT22;5038;53.064;8.624;2022-10-18T10:05:08;15.60;99.90
9998;DHT22;5038;53.064;8.624;2022-10-18T10:07:41;15.70;99.90
9998;DHT22;5038;53.064;8.624;2022-10-18T10:10:16;15.70;99.90
9998;DHT22;5038;53.064;8.624;2022-10-18T10:12:47;15.70;99.90
9998;DHT22;5038;53.064;8.624;2022-10-18T10:15:18;15.70;99.90
9998;DHT22;5038;53.064;8.624;2022-10-18T10:17:55;15.80;99.90
9998;DHT22;5038;53.064;8.624;2022-10-18T10:20:29;15.80;99.90
9998;DHT22;5038;53.064;8.624;2022-10-18T10:23:06;15.90;99.90
9998;DHT22;5038;53.064;8.624;2022-10-18T10:25:36;15.90;99.90
9998;DHT22;5038;53.064;8.624;2022-10-18T10:28:12;15.90;99.90
9998;DHT22;5038;53.064;8.624;2022-10-18T10:30:41;15.90;99.90
9998;DHT22;5038;53.064;8.624;2022-10-18T10:33:31;16.00;99.90
9998;DHT22;5038;53.064;8.624;2022-10-18T10:36:02;16.00;99.90
9998;DHT22;5038;53.064;8.624;2022-10-18T10:38:33;16.00;99.90
9998;DHT22;5038;53.064;8.624;2022-10-18T10:41:03;16.00;99.90
9998;DHT22;5038;53.064;8.624;2022-10-18T10:43:33;16.10;99.90
9998;DHT22;5038;53.064;8.624;2022-10-18T10:46:07;16.10;99.90
9998;DHT22;5038;53.064;8.624;2022-10-18T10:48:55;16.00;99.90
9998;DHT22;5038;53.064;8.624;2022-10-18T10:51:52;16.00;99.90
9998;DHT22;5038;53.064;8.624;2022-10-18T10:54:36;16.00;99.90
9998;DHT22;5038;53.064;8.624;2022-10-18T10:57:21;16.00;99.90
9998;DHT22;5038;53.064;8.624;2022-10-18T10:59:52;15.90;99.90
9998;DHT22;5038;53.064;8.624;2022-10-18T11:02:22;15.90;99.90
9998;DHT22;5038;53.064;8.624;2022-10-18T11:04:54;15.90;99.90
9998;DHT22;5038;53.064;8.624;2022-10-18T11:07:27;15.90;99.90
9998;DHT22;5038;53.064;8.624;2022-10-18T11:10:00;15.90;99.90
9998;DHT22;5038;53.064;8.624;2022-10-18T11:12:33;15.90;99.90
9998;DHT22;5038;53.064;8.624;2022-10-18T11:15:09;15.90;99.90
9998;DHT22;5038;53.064;8.624;2022-10-18T11:17:41;16.00;99.90
9998;DHT22;5038;53.064;8.624;2022-10-18T11:20:18;16.00;99.90
9998;DHT22;5038;53.064;8.624;2022-10-18T11:22:58;16.00;99.90
9998;DHT22;5038;53.064;8.624;2022-10-18T11:25:52;16.00;99.90
9998;DHT22;5038;53.064;8.624;2022-10-18T11:28:32;16.10;99.90
9998;DHT22;5038;53.064;8.624;2022-10-18T11:31:13;16.10;99.90
9998;DHT22;5038;53.064;8.624;2022-10-18T11:33:56;16.10;99.90
9998;DHT22;5038;53.064;8.624;2022-10-18T11:36:44;16.10;99.90
9998;DHT22;5038;53.064;8.624;2022-10-18T11:39:45;16.20;99.90
9998;DHT22;5038;53.064;8.624;2022-10-18T11:42:22;16.20;99.90
9998;DHT22;5038;53.064;8.624;2022-10-18T11:45:00;16.10;99.90
9998;DHT22;5038;53.064;8.624;2022-10-18T11:47:39;16.20;99.90
9998;DHT22;5038;53.064;8.624;2022-10-18T11:50:22;16.20;99.90
9998;DHT22;5038;53.064;8.624;2022-10-18T11:53:01;16.20;99.90
9998;DHT22;5038;53.064;8.624;2022-10-18T11:55:42;16.20;99.90
9998;DHT22;5038;53.064;8.624;2022-10-18T11:58:37;16.20;99.90
9998;DHT22;5038;53.064;8.624;2022-10-18T12:01:16;16.30;99.90
9998;DHT22;5038;53.064;8.624;2022-10-18T12:04:00;16.30;99.90
9998;DHT22;5038;53.064;8.624;2022-10-18T12:06:34;16.30;99.90
9998;DHT22;5038;53.064;8.624;2022-10-18T12:09:09;16.30;99.90
9998;DHT22;5038;53.064;8.624;2022-10-18T12:11:45;16.30;99.90
9998;DHT22;5038;53.064;8.624;2022-10-18T12:14:25;16.30;99.90
9998;DHT22;5038;53.064;8.624;2022-10-18T12:16:59;16.40;99.90
9998;DHT22;5038;53.064;8.624;2022-10-18T12:19:50;16.40;99.90
9998;DHT22;5038;53.064;8.624;2022-10-18T12:22:24;16.40;99.90
9998;DHT22;5038;53.064;8.624;2022-10-18T12:24:55;16.40;99.90
9998;DHT22;5038;53.064;8.624;2022-10-18T12:27:32;16.40;99.90
9998;DHT22;5038;53.064;8.624;2022-10-18T12:30:10;16.40;99.90
9998;DHT22;5038;53.064;8.624;2022-10-18T12:32:40;16.50;99.90
9998;DHT22;5038;53.064;8.624;2022-10-18T12:35:41;16.50;99.90
9998;DHT22;5038;53.064;8.624;2022-10-18T12:38:22;16.50;99.90
9998;DHT22;5038;53.064;8.624;2022-10-18T12:40:55;16.60;99.90
9998;DHT22;5038;53.064;8.624;2022-10-18T12:43:26;16.60;99.90
9998;DHT22;5038;53.064;8.624;2022-10-18T12:46:01;16.70;99.90
9998;DHT22;5038;53.064;8.624;2022-10-18T12:48:36;16.70;99.90
9998;DHT22;5038;53.064;8.624;2022-10-18T12:51:12;16.70;99.90
9998;DHT22;5038;53.064;8.624;2022-10-18T12:53:43;16.70;99.90
9998;DHT22;5038;53.064;8.624;2022-10-18T12:56:36;16.60;99.90
9998;DHT22;5038;53.064;8.624;2022-10-18T13:02:27;16.60;99.90
9998;DHT22;5038;53.064;8.624;2022-10-18T13:04:57;16.50;99.90
9998;DHT22;5038;53.064;8.624;2022-10-18T13:07:38;16.50;99.90
9998;DHT22;5038;53.064;8.624;2022-10-18T13:10:33;16.50;99.90
9998;DHT22;5038;53.064;8.624;2022-10-18T13:13:24;16.50;99.90
9998;DHT22;5038;53.064;8.624;2022-10-18T13:16:19;16.50;99.90
9998;DHT22;5038;53.064;8.624;2022-10-18T13:18:53;16.50;99.90
9998;DHT22;5038;53.064;8.624;2022-10-18T13:21:30;16.60;99.90
9998;DHT22;5038;53.064;8.624;2022-10-18T13:24:11;16.60;99.90
9998;DHT22;5038;53.064;8.624;2022-10-18T13:26:50;16.70;99.90
9998;DHT22;5038;53.064;8.624;2022-10-18T13:29:57;16.80;99.90
9998;DHT22;5038;53.064;8.624;2022-10-18T13:32:31;16.80;99.90
9998;DHT22;5038;53.064;8.624;2022-10-18T13:35:02;16.80;99.90
9998;DHT22;5038;53.064;8.624;2022-10-18T13:37:32;16.90;99.90
9998;DHT22;5038;53.064;8.624;2022-10-18T13:40:14;16.90;99.90
9998;DHT22;5038;53.064;8.624;2022-10-18T13:42:42;17.00;99.90
9998;DHT22;5038;53.064;8.624;2022-10-18T13:45:43;17.00;99.90
9998;DHT22;5038;53.064;8.624;2022-10-18T13:48:43;17.10;99.90
9998;DHT22;5038;53.064;8.624;2022-10-18T13:51:31;17.10;99.90
9998;DHT22;5038;53.064;8.624;2022-10-18T13:54:08;17.20;99.90
9998;DHT22;5038;53.064;8.624;2022-10-18T13:57:04;17.20;99.90
9998;DHT22;5038;53.064;8.624;2022-10-18T14:03:01;17.20;99.90
9998;DHT22;5038;53.064;8.624;2022-10-18T14:05:50;17.20;99.90
9998;DHT22;5038;53.064;8.624;2022-10-18T14:08:24;17.20;99.90
9998;DHT22;5038;53.064;8.624;2022-10-18T14:11:02;17.10;99.90
9998;DHT22;5038;53.064;8.624;2022-10-18T14:13:37;17.00;99.90
9998;DHT22;5038;53.064;8.624;2022-10-18T14:16:15;16.90;99.90
9998;DHT22;5038;53.064;8.624;2022-10-18T14:18:48;16.80;99.90
9998;DHT22;5038;53.064;8.624;2022-10-18T14:21:23;16.70;99.90
9998;DHT22;5038;53.064;8.624;2022-10-18T14:23:58;16.60;99.90
9998;DHT22;5038;53.064;8.624;2022-10-18T14:26:26;16.50;99.90
9998;DHT22;5038;53.064;8.624;2022-10-18T14:29:04;16.50;99.90
9998;DHT22;5038;53.064;8.624;2022-10-18T14:31:33;16.40;99.90
9998;DHT22;5038;53.064;8.624;2022-10-18T14:34:02;16.40;99.90
9998;DHT22;5038;53.064;8.624;2022-10-18T14:36:35;16.40;99.90
9998;DHT22;5038;53.064;8.624;2022-10-18T14:39:17;16.40;99.90
9998;DHT22;5038;53.064;8.624;2022-10-18T14:41:50;16.40;99.90
9998;DHT22;5038;53.064;8.624;2022-10-18T14:44:23;16.40;99.90
9998;DHT22;5038;53.064;8.624;2022-10-18T14:46:58;16.40;99.90
9998;DHT22;5038;53.064;8.624;2022-10-18T14:49:28;16.40;99.90
9998;DHT22;5038;53.064;8.624;2022-10-18T14:51:58;16.40;99.90
9998;DHT22;5038;53.064;8.624;2022-10-18T14:54:30;16.40;99.90
9998;DHT22;5038;53.064;8.624;2022-10-18T14:57:00;16.40;99.90
9998;DHT22;5038;53.064;8.624;2022-10-18T14:59:31;16.50;99.90
9998;DHT22;5038;53.064;8.624;2022-10-18T15:02:01;16.50;99.90
9998;DHT22;5038;53.064;8.624;2022-10-18T15:04:31;16.50;99.90
9998;DHT22;5038;53.064;8.624;2022-10-18T15:07:01;16.50;99.90
9998;DHT22;5038;53.064;8.624;2022-10-18T15:09:33;16.50;99.90
9998;DHT22;5038;53.064;8.624;2022-10-18T15:12:04;16.50;99.90
9998;DHT22;5038;53.064;8.624;2022-10-18T15:14:33;16.50;99.90
9998;DHT22;5038;53.064;8.624;2022-10-18T15:17:06;16.50;99.90
9998;DHT22;5038;53.064;8.624;2022-10-18T15:19:36;16.40;99.90
9998;DHT22;5038;53.064;8.624;2022-10-18T15:22:08;16.40;99.90
9998;DHT22;5038;53.064;8.624;2022-10-18T15:25:13;16.40;99.90
9998;DHT22;5038;53.064;8.624;2022-10-18T15:27:44;16.40;99.90
9998;DHT22;5038;53.064;8.624;2022-10-18T15:30:23;16.40;99.90
9998;DHT22;5038;53.064;8.624;2022-10-18T15:32:55;16.40;99.90
9998;DHT22;5038;53.064;8.624;2022-10-18T15:35:27;16.30;99.90
9998;DHT22;5038;53.064;8.624;2022-10-18T15:37:57;16.30;99.90
9998;DHT22;5038;53.064;8.624;2022-10-18T15:40:35;16.20;99.90
9998;DHT22;5038;53.064;8.624;2022-10-18T15:43:31;16.20;99.90
9998;DHT22;5038;53.064;8.624;2022-10-18T15:45:55;16.20;99.90
9998;DHT22;5038;53.064;8.624;2022-10-18T15:48:31;16.10;99.90
9998;DHT22;5038;53.064;8.624;2022-10-18T15:51:02;16.00;99.90
9998;DHT22;5038;53.064;8.624;2022-10-18T15:53:42;16.00;99.90
9998;DHT22;5038;53.064;8.624;2022-10-18T15:56:32;15.80;99.90
9998;DHT22;5038;53.064;8.624;2022-10-18T15:59:03;15.90;99.90
9998;DHT22;5038;53.064;8.624;2022-10-18T16:01:35;15.80;99.90
9998;DHT22;5038;53.064;8.624;2022-10-18T16:04:09;15.80;99.90
9998;DHT22;5038;53.064;8.624;2022-10-18T16:06:41;15.80;99.90
9998;DHT22;5038;53.064;8.624;2022-10-18T16:09:12;15.70;99.90
9998;DHT22;5038;53.064;8.624;2022-10-18T16:11:44;15.70;99.90
9998;DHT22;5038;53.064;8.624;2022-10-18T16:14:13;15.60;99.90
9998;DHT22;5038;53.064;8.624;2022-10-18T16:16:41;15.60;99.90
9998;DHT22;5038;53.064;8.624;2022-10-18T16:19:12;15.60;99.90
9998;DHT22;5038;53.064;8.624;2022-10-18T16:21:41;15.50;99.90
9998;DHT22;5038;53.064;8.624;2022-10-18T16:24:10;15.40;99.90
9998;DHT22;5038;53.064;8.624;2022-10-18T16:26:38;15.40;99.90
9998;DHT22;5038;53.064;8.624;2022-10-18T16:29:11;15.40;99.90
9998;DHT22;5038;53.064;8.624;2022-10-18T16:31:40;15.30;99.90
9998;DHT22;5038;53.064;8.624;2022-10-18T16:34:08;15.30;99.90
9998;DHT22;5038;53.064;8.624;2022-10-18T16:36:37;15.30;99.90
9998;DHT22;5038;53.064;8.624;2022-10-18T16:39:06;15.20;99.90
9998;DHT22;5038;53.064;8.624;2022-10-18T16:41:39;15.20;99.90
9998;DHT22;5038;53.064;8.624;2022-10-18T16:44:08;15.10;99.90
9998;DHT22;5038;53.064;8.624;2022-10-18T16:46:37;15.10;99.90
9998;DHT22;5038;53.064;8.624;2022-10-18T16:49:05;15.00;99.90